Time;durP1;ratioP1;P1;durP2;ratioP2;P2;SDS_P1;SDS_P2;PMS_P1;PMS_P2;Temp;Humidity;BMP_temperature;BMP_pressure;BME280_temperature;BME280_humidity;BME280_pressure;Samples;Min_cycle;Max_cycle;Signal;HPM_P1;HPM_P2
2021/06/29 00:00:48;;;;;;;6.77;6.17;;;25.00;1.00;;;;;;5077223;28;20469;-67
2021/06/29 00:03:16;;;;;;;6.50;6.00;;;25.00;1.00;;;;;;5075145;28;20454;-67
2021/06/29 00:05:46;;;;;;;6.60;6.10;;;25.00;1.00;;;;;;5075141;28;20535;-67
2021/06/29 00:08:13;;;;;;;7.03;6.13;;;25.00;1.00;;;;;;5074416;28;20457;-67
2021/06/29 00:10:40;;;;;;;6.60;6.10;;;25.00;1.00;;;;;;5075727;28;20787;-68
2021/06/29 00:13:06;;;;;;;7.00;6.40;;;24.90;1.00;;;;;;5075730;28;20458;-67
2021/06/29 00:15:35;;;;;;;7.00;6.40;;;24.90;1.00;;;;;;5075769;28;20458;-67
2021/06/29 00:18:02;;;;;;;6.50;6.00;;;24.90;1.00;;;;;;5075594;28;20454;-66
2021/06/29 00:20:29;;;;;;;6.90;6.30;;;24.90;1.00;;;;;;5076008;28;20787;-67
2021/06/29 00:22:58;;;;;;;7.10;6.50;;;24.90;1.00;;;;;;5076050;28;20454;-66
2021/06/29 00:25:25;;;;;;;6.80;6.30;;;24.90;1.00;;;;;;5076222;28;20458;-66
2021/06/29 00:27:51;;;;;;;7.03;6.47;;;24.90;1.00;;;;;;5076055;28;20493;-67
2021/06/29 00:30:19;;;;;;;6.60;6.07;;;24.80;1.00;;;;;;5075858;28;20462;-67
2021/06/29 00:32:47;;;;;;;6.63;6.03;;;24.80;1.00;;;;;;5075502;28;20934;-67
2021/06/29 00:35:14;;;;;;;7.07;6.57;;;24.80;1.00;;;;;;5075399;28;20457;-67
2021/06/29 00:37:43;;;;;;;7.37;6.77;;;24.80;1.00;;;;;;5075343;28;20450;-66
2021/06/29 00:40:12;;;;;;;6.97;6.37;;;24.70;1.00;;;;;;5075377;28;20497;-67
2021/06/29 00:42:39;;;;;;;6.70;6.10;;;24.70;1.00;;;;;;5075955;28;20472;-66
2021/06/29 00:45:08;;;;;;;8.63;6.60;;;24.70;1.00;;;;;;5075535;28;20766;-66
2021/06/29 00:47:35;;;;;;;7.50;6.90;;;24.70;1.00;;;;;;5075220;28;20496;-66
2021/06/29 00:50:04;;;;;;;7.80;7.20;;;24.60;1.00;;;;;;5075469;28;20755;-67
2021/06/29 00:52:31;;;;;;;7.37;6.73;;;24.60;1.00;;;;;;5075599;28;20454;-66
2021/06/29 00:54:58;;;;;;;7.80;7.10;;;24.60;1.00;;;;;;5076144;28;20454;-66
2021/06/29 00:57:25;;;;;;;7.50;6.90;;;24.60;1.00;;;;;;5076196;28;20462;-66
2021/06/29 00:59:51;;;;;;;7.57;6.93;;;24.50;1.00;;;;;;5075521;28;20454;-66
2021/06/29 01:02:18;;;;;;;7.43;6.77;;;24.50;1.00;;;;;;5075510;28;20469;-66
2021/06/29 01:04:45;;;;;;;7.67;7.07;;;24.50;1.00;;;;;;5075011;28;20455;-67
2021/06/29 01:07:14;;;;;;;6.97;6.37;;;24.40;1.00;;;;;;5075286;28;20505;-66
2021/06/29 01:09:41;;;;;;;7.93;7.33;;;24.40;1.00;;;;;;5075325;28;20465;-66
2021/06/29 01:12:09;;;;;;;7.00;6.43;;;24.40;1.00;;;;;;5074567;28;20465;-66
2021/06/29 01:14:37;;;;;;;7.70;7.00;;;24.30;1.00;;;;;;5074656;28;20461;-67
2021/06/29 01:17:05;;;;;;;7.17;6.57;;;24.30;1.00;;;;;;5074389;28;20914;-67
2021/06/29 01:19:38;;;;;;;7.30;6.70;;;24.30;1.00;;;;;;5074729;28;20464;-67
2021/06/29 01:22:08;;;;;;;7.57;6.97;;;24.20;1.00;;;;;;5074688;28;20442;-67
2021/06/29 01:24:35;;;;;;;10.60;6.63;;;24.20;1.00;;;;;;5074269;28;20458;-67
2021/06/29 01:27:15;;;;;;;7.60;7.00;;;24.20;1.00;;;;;;5074028;28;20799;-67
2021/06/29 01:29:50;;;;;;;7.57;6.87;;;24.20;1.00;;;;;;5074574;28;20535;-67
2021/06/29 01:32:17;;;;;;;7.67;7.07;;;24.20;1.00;;;;;;5073782;28;20484;-67
2021/06/29 01:34:44;;;;;;;7.50;6.90;;;24.10;1.00;;;;;;5074346;28;20485;-68
2021/06/29 01:37:13;;;;;;;6.67;6.17;;;24.10;1.00;;;;;;5074453;28;20756;-67
2021/06/29 01:39:50;;;;;;;7.90;7.30;;;24.10;1.00;;;;;;5074015;28;20477;-67
2021/06/29 01:42:17;;;;;;;8.03;7.23;;;24.20;1.00;;;;;;5074364;28;20940;-67
2021/06/29 01:44:43;;;;;;;7.70;7.00;;;24.10;1.00;;;;;;5074429;28;20477;-67
2021/06/29 01:47:13;;;;;;;7.37;6.80;;;24.20;1.00;;;;;;5073639;28;20501;-67
2021/06/29 01:49:39;;;;;;;7.10;6.50;;;24.20;1.00;;;;;;5074207;28;20458;-67
2021/06/29 01:52:06;;;;;;;7.43;6.83;;;24.20;1.00;;;;;;5076846;28;20465;-67
2021/06/29 01:54:35;;;;;;;6.67;6.17;;;24.20;1.00;;;;;;5077479;28;20469;-67
2021/06/29 01:57:02;;;;;;;7.33;6.73;;;24.10;1.00;;;;;;5077560;28;20911;-67
2021/06/29 01:59:28;;;;;;;7.93;6.80;;;24.20;1.00;;;;;;5077157;28;20454;-67
2021/06/29 02:01:55;;;;;;;6.87;6.27;;;24.10;1.00;;;;;;5077194;28;20454;-67
2021/06/29 02:04:24;;;;;;;7.30;6.80;;;24.10;1.00;;;;;;5077262;28;20458;-67
2021/06/29 02:06:51;;;;;;;7.53;6.93;;;24.10;1.00;;;;;;5077298;28;20565;-67
2021/06/29 02:09:17;;;;;;;7.83;7.13;;;24.10;1.00;;;;;;5076984;28;20465;-67
2021/06/29 02:11:45;;;;;;;8.03;7.30;;;24.00;1.00;;;;;;5076283;28;20473;-68
2021/06/29 02:14:12;;;;;;;7.90;7.23;;;24.00;1.00;;;;;;5076954;28;20802;-67
2021/06/29 02:16:39;;;;;;;7.67;7.07;;;23.90;1.00;;;;;;5077340;28;20503;-67
2021/06/29 02:19:09;;;;;;;8.40;7.70;;;23.90;1.00;;;;;;5077007;28;20789;-67
2021/06/29 02:21:36;;;;;;;8.10;7.50;;;23.80;1.00;;;;;;5076938;28;20564;-67
2021/06/29 02:24:02;;;;;;;7.90;7.20;;;23.80;1.00;;;;;;5076962;28;20471;-67
2021/06/29 02:26:29;;;;;;;8.60;7.90;;;23.80;1.00;;;;;;5076853;28;20458;-69
2021/06/29 02:28:57;;;;;;;8.53;7.83;;;23.80;1.00;;;;;;5077051;28;20810;-67
2021/06/29 02:31:24;;;;;;;8.43;7.80;;;23.80;1.00;;;;;;5076489;28;20458;-67
2021/06/29 02:33:51;;;;;;;7.80;7.10;;;23.70;1.00;;;;;;5076600;28;20946;-67
2021/06/29 02:36:17;;;;;;;7.60;6.90;;;23.70;1.00;;;;;;5076717;28;20524;-67
2021/06/29 02:38:44;;;;;;;7.87;7.17;;;23.70;1.00;;;;;;5076807;28;20473;-67
2021/06/29 02:41:11;;;;;;;7.53;6.93;;;23.70;1.00;;;;;;5076612;28;20461;-67
2021/06/29 02:43:40;;;;;;;8.53;7.73;;;23.70;1.00;;;;;;5076411;28;20458;-67
2021/06/29 02:46:08;;;;;;;8.63;7.37;;;23.70;1.00;;;;;;5076667;28;20481;-67
2021/06/29 02:48:35;;;;;;;9.00;8.23;;;23.70;1.00;;;;;;5076194;28;20494;-67
2021/06/29 02:51:01;;;;;;;8.20;7.40;;;23.70;1.00;;;;;;5076041;28;20923;-67
2021/06/29 02:53:31;;;;;;;8.33;7.57;;;23.70;1.00;;;;;;5076321;28;20462;-67
2021/06/29 02:55:57;;;;;;;7.97;7.23;;;23.70;1.00;;;;;;5076565;28;20458;-67
2021/06/29 02:58:24;;;;;;;8.57;7.77;;;23.80;1.00;;;;;;5076410;28;20465;-67
2021/06/29 03:00:51;;;;;;;8.37;7.67;;;23.70;1.00;;;;;;5076252;28;20462;-67
2021/06/29 03:03:19;;;;;;;7.90;7.30;;;23.70;1.00;;;;;;5074611;28;20469;-67
2021/06/29 03:05:45;;;;;;;8.40;7.67;;;23.70;1.00;;;;;;5076082;28;20477;-67
2021/06/29 03:08:12;;;;;;;8.27;7.53;;;23.70;1.00;;;;;;5076274;28;20478;-67
2021/06/29 03:10:39;;;;;;;8.73;8.03;;;23.80;1.00;;;;;;5075952;28;20488;-67
2021/06/29 03:13:05;;;;;;;8.40;7.80;;;23.80;1.00;;;;;;5075699;28;20462;-67
2021/06/29 03:15:32;;;;;;;8.50;7.57;;;23.80;1.00;;;;;;5076083;28;20469;-67
2021/06/29 03:17:59;;;;;;;8.63;8.03;;;23.80;1.00;;;;;;5075865;28;20736;-67
2021/06/29 03:20:28;;;;;;;8.50;7.80;;;23.80;1.00;;;;;;5075769;28;20469;-67
2021/06/29 03:22:54;;;;;;;9.57;7.77;;;23.90;1.00;;;;;;5075416;28;20458;-67
2021/06/29 03:25:21;;;;;;;9.70;8.10;;;23.90;1.00;;;;;;5075670;28;20465;-67
2021/06/29 03:27:48;;;;;;;8.67;7.90;;;23.90;1.00;;;;;;5075680;28;20954;-67
2021/06/29 03:30:16;;;;;;;8.27;7.57;;;23.90;1.00;;;;;;5075448;28;20462;-67
2021/06/29 03:32:42;;;;;;;8.60;7.40;;;23.90;1.00;;;;;;5075314;28;20462;-67
2021/06/29 03:35:11;;;;;;;8.73;8.03;;;23.90;1.00;;;;;;5076005;28;20461;-67
2021/06/29 03:37:39;;;;;;;9.70;8.80;;;23.90;1.00;;;;;;5075254;28;20512;-67
2021/06/29 03:40:09;;;;;;;9.40;8.50;;;23.90;1.00;;;;;;5075480;28;20465;-67
2021/06/29 03:42:35;;;;;;;8.70;8.00;;;23.90;1.00;;;;;;5075398;28;20462;-67
2021/06/29 03:45:02;;;;;;;8.70;7.90;;;23.90;1.00;;;;;;5075171;28;20458;-67
2021/06/29 03:47:29;;;;;;;8.60;7.90;;;23.90;1.00;;;;;;5074755;28;20497;-67
2021/06/29 03:50:00;;;;;;;9.27;8.37;;;23.90;1.00;;;;;;5075431;28;20461;-67
2021/06/29 03:52:27;;;;;;;8.13;7.10;;;24.00;1.00;;;;;;5075289;28;20442;-68
2021/06/29 03:54:55;;;;;;;8.50;7.60;;;24.00;1.00;;;;;;5075396;28;20481;-67
2021/06/29 03:57:22;;;;;;;8.57;7.93;;;24.00;1.00;;;;;;5075352;28;20454;-67
2021/06/29 03:59:49;;;;;;;9.00;8.20;;;24.00;1.00;;;;;;5074971;28;20546;-67
2021/06/29 04:02:15;;;;;;;8.37;7.67;;;24.10;1.00;;;;;;5074774;28;20461;-67
2021/06/29 04:04:42;;;;;;;8.60;7.90;;;24.10;1.00;;;;;;5075026;28;20817;-67
2021/06/29 04:07:10;;;;;;;8.70;8.00;;;24.10;1.00;;;;;;5075713;28;20849;-67
2021/06/29 04:09:38;;;;;;;8.50;7.80;;;24.10;1.00;;;;;;5075026;28;20462;-67
2021/06/29 04:12:08;;;;;;;10.07;9.03;;;24.10;1.00;;;;;;5074999;28;20463;-67
2021/06/29 04:14:36;;;;;;;8.90;8.10;;;24.10;1.00;;;;;;5074703;28;20469;-67
2021/06/29 04:17:03;;;;;;;8.87;8.07;;;24.20;1.00;;;;;;5075080;28;20458;-67
2021/06/29 04:19:29;;;;;;;8.40;7.70;;;24.20;1.00;;;;;;5074972;28;20761;-67
2021/06/29 04:21:56;;;;;;;9.07;8.17;;;24.20;1.00;;;;;;5074215;28;20451;-67
2021/06/29 04:24:23;;;;;;;8.70;7.90;;;24.20;1.00;;;;;;5075286;28;20465;-67
2021/06/29 04:26:49;;;;;;;8.63;7.93;;;24.20;1.00;;;;;;5074553;28;20455;-67
2021/06/29 04:29:17;;;;;;;9.07;8.27;;;24.20;1.00;;;;;;5074625;28;20868;-67
2021/06/29 04:31:44;;;;;;;9.60;8.60;;;24.30;1.00;;;;;;5075022;28;20457;-67
2021/06/29 04:34:11;;;;;;;8.43;7.63;;;24.30;1.00;;;;;;5074812;28;20465;-67
2021/06/29 04:36:37;;;;;;;8.67;8.03;;;24.30;1.00;;;;;;5074599;28;20454;-67
2021/06/29 04:39:05;;;;;;;8.50;7.80;;;24.30;1.00;;;;;;5074485;28;20451;-67
2021/06/29 04:41:33;;;;;;;9.17;8.37;;;24.30;1.00;;;;;;5075101;28;20465;-67
2021/06/29 04:43:59;;;;;;;8.80;8.00;;;24.40;1.00;;;;;;5074824;28;20551;-67
2021/06/29 04:46:27;;;;;;;9.47;8.67;;;24.40;1.00;;;;;;5074398;28;20468;-67
2021/06/29 04:48:54;;;;;;;8.83;8.13;;;24.50;1.00;;;;;;5074577;28;20466;-67
2021/06/29 04:51:21;;;;;;;8.87;8.00;;;24.50;1.00;;;;;;5074207;28;20906;-68
2021/06/29 04:54:06;;;;;;;13.87;12.50;;;24.50;1.00;;;;;;5075351;28;20519;-67
2021/06/29 04:56:33;;;;;;;16.30;14.57;;;24.60;1.00;;;;;;5074580;28;20439;-67
2021/06/29 04:59:01;;;;;;;8.47;7.77;;;24.60;1.00;;;;;;5074519;28;20454;-67
2021/06/29 05:01:30;;;;;;;9.73;8.83;;;24.60;1.00;;;;;;5074279;28;20458;-67
2021/06/29 05:03:56;;;;;;;9.80;9.00;;;24.60;1.00;;;;;;5074187;28;20906;-67
2021/06/29 05:06:23;;;;;;;8.93;8.07;;;24.60;1.00;;;;;;5074601;28;20458;-66
2021/06/29 05:08:51;;;;;;;9.67;8.87;;;24.60;1.00;;;;;;5074298;28;20822;-66
2021/06/29 05:11:17;;;;;;;9.10;8.30;;;24.60;1.00;;;;;;5074296;28;20947;-68
2021/06/29 05:13:44;;;;;;;10.20;8.50;;;24.60;1.00;;;;;;5074780;28;20469;-68
2021/06/29 05:16:11;;;;;;;9.13;8.37;;;24.50;1.00;;;;;;5074117;28;20454;-67
2021/06/29 05:18:40;;;;;;;10.73;8.43;;;24.50;1.00;;;;;;5074166;28;20450;-68
2021/06/29 05:21:07;;;;;;;10.93;8.60;;;24.50;1.00;;;;;;5074273;28;20458;-67
2021/06/29 05:23:36;;;;;;;9.13;8.33;;;24.60;1.00;;;;;;5074321;28;20909;-67
2021/06/29 05:26:03;;;;;;;9.17;8.47;;;24.60;1.00;;;;;;5075846;28;20465;-67
2021/06/29 05:28:30;;;;;;;9.50;8.77;;;24.60;1.00;;;;;;5077643;28;20481;-67
2021/06/29 05:30:56;;;;;;;8.67;7.97;;;24.60;1.00;;;;;;5077576;28;20461;-67
2021/06/29 05:33:23;;;;;;;9.97;8.97;;;24.60;1.00;;;;;;5077822;28;20454;-68
2021/06/29 05:35:51;;;;;;;10.13;9.20;;;24.60;1.00;;;;;;5077946;28;20465;-69
2021/06/29 05:38:18;;;;;;;12.83;9.70;;;24.70;1.00;;;;;;5077731;28;20458;-71
2021/06/29 05:40:44;;;;;;;9.30;8.50;;;24.60;1.00;;;;;;5077629;28;20626;-70
2021/06/29 05:43:11;;;;;;;9.97;9.10;;;24.70;1.00;;;;;;5077616;28;20469;-69
2021/06/29 05:45:38;;;;;;;13.40;9.40;;;24.70;1.00;;;;;;5077493;28;20454;-70
2021/06/29 05:48:05;;;;;;;9.30;8.40;;;24.70;1.00;;;;;;5077189;28;20493;-69
2021/06/29 05:50:32;;;;;;;10.60;9.70;;;24.70;1.00;;;;;;5077225;28;20461;-69
2021/06/29 05:53:00;;;;;;;9.70;8.70;;;24.60;1.00;;;;;;5077669;28;20760;-69
2021/06/29 05:55:27;;;;;;;11.70;9.70;;;24.70;1.00;;;;;;5077463;28;20473;-69
2021/06/29 05:57:56;;;;;;;11.70;8.77;;;24.70;1.00;;;;;;5077772;28;20805;-69
2021/06/29 06:00:22;;;;;;;10.93;9.93;;;24.70;1.00;;;;;;5077444;28;20480;-69
2021/06/29 06:02:49;;;;;;;10.47;9.57;;;24.70;1.00;;;;;;5077408;28;20473;-69
2021/06/29 06:05:16;;;;;;;10.70;9.60;;;24.70;1.00;;;;;;5077523;28;20461;-71
2021/06/29 06:07:42;;;;;;;10.37;9.47;;;24.70;1.00;;;;;;5077008;28;20455;-70
2021/06/29 06:10:13;;;;;;;10.33;9.53;;;24.70;1.00;;;;;;5077034;28;20458;-69
2021/06/29 06:12:40;;;;;;;11.13;9.93;;;24.80;1.00;;;;;;5077149;28;20535;-69
2021/06/29 06:15:10;;;;;;;10.47;9.50;;;24.80;1.00;;;;;;5077102;28;20553;-70
2021/06/29 06:17:38;;;;;;;15.50;9.20;;;24.80;1.00;;;;;;5076642;28;20922;-70
2021/06/29 06:20:07;;;;;;;10.40;9.40;;;24.90;1.00;;;;;;5076951;28;20458;-70
2021/06/29 06:22:34;;;;;;;9.87;9.03;;;25.00;1.00;;;;;;5076852;28;20481;-70
2021/06/29 06:25:01;;;;;;;10.63;9.73;;;25.10;1.00;;;;;;5077190;28;20450;-70
2021/06/29 06:27:29;;;;;;;10.73;9.83;;;25.10;1.00;;;;;;5077055;28;20788;-70
2021/06/29 06:29:56;;;;;;;10.30;9.33;;;25.20;1.00;;;;;;5076322;28;20474;-70
2021/06/29 06:32:22;;;;;;;10.67;9.77;;;25.30;1.00;;;;;;5076451;28;20922;-70
2021/06/29 06:34:49;;;;;;;10.50;9.40;;;25.40;1.00;;;;;;5076389;28;20454;-70
2021/06/29 06:37:16;;;;;;;12.40;9.37;;;25.50;1.00;;;;;;5076051;28;20937;-70
2021/06/29 06:39:42;;;;;;;9.77;8.97;;;25.60;1.00;;;;;;5076621;28;20458;-70
2021/06/29 06:42:10;;;;;;;11.00;10.00;;;25.70;1.00;;;;;;5076609;28;20465;-70
2021/06/29 06:44:38;;;;;;;13.47;10.00;;;25.80;1.00;;;;;;5075827;28;20458;-70
2021/06/29 06:47:05;;;;;;;10.53;9.53;;;25.90;1.00;;;;;;5075678;28;20501;-70
2021/06/29 06:49:32;;;;;;;11.30;10.20;;;26.00;1.00;;;;;;5076448;28;20581;-70
2021/06/29 06:51:58;;;;;;;10.57;9.67;;;26.10;1.00;;;;;;5076045;28;20462;-70
2021/06/29 06:54:25;;;;;;;12.00;10.63;;;26.20;1.00;;;;;;5076179;28;20468;-71
2021/06/29 06:56:53;;;;;;;12.00;10.80;;;26.30;1.00;;;;;;5076312;28;20459;-69
2021/06/29 06:59:19;;;;;;;10.97;9.90;;;26.30;1.00;;;;;;5076151;28;20831;-70
2021/06/29 07:01:48;;;;;;;12.17;10.50;;;26.40;1.00;;;;;;5075960;28;20529;-70
2021/06/29 07:04:16;;;;;;;10.57;9.67;;;26.50;1.00;;;;;;5076671;28;20462;-70
2021/06/29 07:06:43;;;;;;;11.27;10.27;;;26.60;1.00;;;;;;5076445;28;20450;-71
2021/06/29 07:09:10;;;;;;;10.73;9.60;;;26.60;1.00;;;;;;5076190;28;20584;-70
2021/06/29 07:11:37;;;;;;;11.53;10.47;;;26.80;1.00;;;;;;5076896;28;20868;-72
2021/06/29 07:14:06;;;;;;;11.70;10.60;;;26.80;1.00;;;;;;5076147;28;20454;-71
2021/06/29 07:16:32;;;;;;;11.03;9.93;;;27.00;1.00;;;;;;5076398;28;20523;-71
2021/06/29 07:19:00;;;;;;;10.20;9.40;;;27.10;1.00;;;;;;5076394;28;20450;-72
2021/06/29 07:21:27;;;;;;;11.33;10.20;;;27.20;1.00;;;;;;5076172;28;20462;-72
2021/06/29 07:23:54;;;;;;;10.80;9.97;;;27.30;1.00;;;;;;5076120;28;20465;-71
2021/06/29 07:26:21;;;;;;;11.20;10.00;;;27.40;1.00;;;;;;5076071;28;20454;-71
2021/06/29 07:28:50;;;;;;;10.40;9.50;;;27.50;1.00;;;;;;5075567;28;20478;-71
2021/06/29 07:31:18;;;;;;;10.57;9.60;;;27.60;1.00;;;;;;5075360;28;20458;-72
2021/06/29 07:33:45;;;;;;;11.93;10.63;;;27.70;1.00;;;;;;5076355;28;20466;-73
2021/06/29 07:36:17;;;;;;;11.53;10.43;;;27.80;1.00;;;;;;5076669;28;20804;-72
2021/06/29 07:38:44;;;;;;;12.27;11.17;;;27.90;1.00;;;;;;5076920;28;20461;-72
2021/06/29 07:41:15;;;;;;;12.27;11.07;;;28.00;1.00;;;;;;5076212;28;20480;-72
2021/06/29 07:43:42;;;;;;;10.37;9.50;;;28.10;1.00;;;;;;5075578;28;20443;-71
2021/06/29 07:46:11;;;;;;;10.30;9.30;;;28.20;1.00;;;;;;5075911;28;20458;-73
2021/06/29 07:48:38;;;;;;;13.53;10.23;;;28.40;1.00;;;;;;5075437;28;20490;-70
2021/06/29 07:51:08;;;;;;;9.27;8.60;;;28.50;1.00;;;;;;5075780;28;20465;-71
2021/06/29 07:53:40;;;;;;;10.63;9.73;;;28.60;1.00;;;;;;5075438;28;20435;-72
2021/06/29 07:56:13;;;;;;;10.80;9.90;;;28.70;1.00;;;;;;5075589;28;20479;-71
2021/06/29 07:58:40;;;;;;;10.90;9.20;;;28.80;1.00;;;;;;5075569;28;20434;-71
2021/06/29 08:01:07;;;;;;;12.03;9.50;;;29.00;1.00;;;;;;5075751;28;20458;-71
2021/06/29 08:03:34;;;;;;;9.17;8.37;;;29.20;1.00;;;;;;5075490;28;20461;-72
2021/06/29 08:06:00;;;;;;;9.53;8.63;;;29.30;1.00;;;;;;5075215;28;20454;-72
2021/06/29 08:08:27;;;;;;;9.37;8.57;;;29.50;1.00;;;;;;5075151;28;20489;-72
2021/06/29 08:10:55;;;;;;;9.70;8.80;;;29.70;1.00;;;;;;5075454;28;20458;-72
2021/06/29 08:13:22;;;;;;;9.53;8.80;;;29.80;1.00;;;;;;5075082;28;20477;-72
2021/06/29 08:15:48;;;;;;;10.37;9.20;;;30.00;1.00;;;;;;5075045;28;20862;-71
2021/06/29 08:18:16;;;;;;;9.20;8.40;;;30.10;1.00;;;;;;5074902;28;20454;-71
2021/06/29 08:20:43;;;;;;;10.53;9.40;;;30.10;1.00;;;;;;5075494;28;20527;-71
2021/06/29 08:23:10;;;;;;;10.93;10.03;;;30.10;1.00;;;;;;5075063;28;20469;-71
2021/06/29 08:25:39;;;;;;;9.33;8.53;;;30.20;1.00;;;;;;5074861;28;20469;-71
2021/06/29 08:28:07;;;;;;;8.97;8.23;;;30.30;1.00;;;;;;5074610;28;20914;-71
2021/06/29 08:30:34;;;;;;;9.70;8.70;;;30.40;1.00;;;;;;5074405;28;20969;-71
2021/06/29 08:33:00;;;;;;;8.83;8.13;;;30.50;1.00;;;;;;5074751;28;20485;-72
2021/06/29 08:35:27;;;;;;;8.10;7.50;;;30.60;1.00;;;;;;5074196;28;20469;-71
2021/06/29 08:37:54;;;;;;;8.80;8.17;;;30.70;1.00;;;;;;5074764;28;20465;-71
2021/06/29 08:40:21;;;;;;;9.23;7.80;;;30.80;1.00;;;;;;5074875;28;20465;-71
2021/06/29 08:42:48;;;;;;;8.23;7.43;;;30.80;1.00;;;;;;5075348;28;20469;-71
2021/06/29 08:45:19;;;;;;;8.30;7.57;;;30.80;1.00;;;;;;5075880;28;20455;-71
2021/06/29 08:47:49;;;;;;;7.57;6.97;;;30.90;1.00;;;;;;5075690;28;20482;-71
2021/06/29 08:50:18;;;;;;;8.43;7.73;;;31.00;1.00;;;;;;5076054;28;20787;-72
2021/06/29 08:52:45;;;;;;;8.20;7.40;;;31.10;1.00;;;;;;5075870;28;20470;-72
2021/06/29 08:55:13;;;;;;;11.63;7.57;;;31.20;1.00;;;;;;5076097;28;20462;-71
2021/06/29 08:57:40;;;;;;;12.37;7.40;;;31.20;1.00;;;;;;5075556;28;20789;-71
2021/06/29 09:00:10;;;;;;;9.70;6.87;;;31.20;1.00;;;;;;5076908;28;20926;-71
2021/06/29 09:02:40;;;;;;;8.90;8.10;;;31.20;1.00;;;;;;5080128;28;20511;-71
2021/06/29 09:05:21;;;;;;;8.93;7.97;;;31.20;1.00;;;;;;5078883;28;20508;-71
2021/06/29 09:07:58;;;;;;;8.80;8.00;;;31.30;1.00;;;;;;5080050;28;20805;-72
2021/06/29 09:10:25;;;;;;;9.03;8.13;;;31.40;1.00;;;;;;5079639;28;20476;-71
2021/06/29 09:12:54;;;;;;;8.63;7.50;;;31.40;1.00;;;;;;5080533;28;20462;-71
2021/06/29 09:15:27;;;;;;;8.83;7.73;;;31.50;1.00;;;;;;5079945;28;20458;-71
2021/06/29 09:17:58;;;;;;;8.00;7.20;;;31.60;1.00;;;;;;5080637;28;20823;-71
2021/06/29 09:20:27;;;;;;;7.57;6.97;;;31.70;1.00;;;;;;5079922;28;20434;-71
2021/06/29 09:22:57;;;;;;;7.43;6.93;;;31.80;1.00;;;;;;5079429;28;20453;-72
2021/06/29 09:25:26;;;;;;;9.13;8.33;;;31.90;1.00;;;;;;5078377;28;20454;-72
2021/06/29 09:27:54;;;;;;;8.00;7.37;;;31.80;1.00;;;;;;5077929;28;20878;-71
2021/06/29 09:30:33;;;;;;;8.03;7.20;;;31.80;1.00;;;;;;5078254;28;20501;-71
2021/06/29 09:33:04;;;;;;;8.30;7.60;;;31.80;1.00;;;;;;5077629;28;20570;-71
2021/06/29 09:35:31;;;;;;;7.93;6.97;;;31.80;1.00;;;;;;5077692;28;20442;-71
2021/06/29 09:37:59;;;;;;;7.40;6.90;;;31.70;1.00;;;;;;5078673;28;20458;-71
2021/06/29 09:40:28;;;;;;;7.27;6.77;;;31.70;1.00;;;;;;5077839;28;20446;-72
2021/06/29 09:43:10;;;;;;;10.30;6.90;;;31.70;1.00;;;;;;5078222;28;20458;-71
2021/06/29 09:45:41;;;;;;;7.07;6.63;;;31.70;1.00;;;;;;5077734;28;20453;-71
2021/06/29 09:48:10;;;;;;;7.40;6.90;;;31.70;1.00;;;;;;5077621;28;20978;-71
2021/06/29 09:50:49;;;;;;;8.00;7.13;;;31.60;1.00;;;;;;5077220;28;20547;-70
2021/06/29 09:53:17;;;;;;;8.07;7.47;;;31.60;1.00;;;;;;5078450;28;20442;-71
2021/06/29 09:55:46;;;;;;;8.60;7.90;;;31.50;1.00;;;;;;5080359;28;20454;-71
2021/06/29 09:58:14;;;;;;;8.20;7.50;;;31.50;1.00;;;;;;5079131;28;20482;-71
2021/06/29 10:00:42;;;;;;;8.03;7.33;;;31.50;1.00;;;;;;5078224;28;20527;-71
2021/06/29 10:03:24;;;;;;;9.23;6.80;;;31.50;1.00;;;;;;5077718;28;20469;-72
2021/06/29 10:05:52;;;;;;;8.57;7.83;;;31.50;1.00;;;;;;5077169;28;20442;-71
2021/06/29 10:08:27;;;;;;;8.60;7.70;;;31.50;1.00;;;;;;5077410;28;20902;-72
2021/06/29 10:11:05;;;;;;;8.70;7.90;;;31.50;1.00;;;;;;5076993;28;20474;-72
2021/06/29 10:13:35;;;;;;;8.33;7.53;;;31.60;1.00;;;;;;5077355;28;20518;-72
2021/06/29 10:16:03;;;;;;;7.83;7.33;;;31.50;1.00;;;;;;5077877;28;20524;-72
2021/06/29 10:18:33;;;;;;;12.57;7.47;;;31.50;1.00;;;;;;5077287;28;20469;-72
2021/06/29 10:21:03;;;;;;;8.60;7.70;;;31.50;1.00;;;;;;5077536;28;20517;-72
2021/06/29 10:23:31;;;;;;;8.17;7.57;;;31.60;1.00;;;;;;5077801;28;20439;-72
2021/06/29 10:25:58;;;;;;;8.93;8.23;;;31.80;1.00;;;;;;5076766;28;20466;-72
2021/06/29 10:28:26;;;;;;;8.40;7.60;;;32.00;1.00;;;;;;5076621;28;20462;-72
2021/06/29 10:30:56;;;;;;;8.20;7.50;;;32.30;1.00;;;;;;5076721;28;20478;-72
2021/06/29 10:33:23;;;;;;;8.20;7.57;;;32.60;1.00;;;;;;5076779;28;20507;-71
2021/06/29 10:35:51;;;;;;;7.70;7.10;;;32.90;1.00;;;;;;5076922;28;20462;-72
2021/06/29 10:38:20;;;;;;;9.30;8.50;;;33.10;1.00;;;;;;5077013;28;20466;-72
2021/06/29 10:40:50;;;;;;;8.80;7.37;;;33.30;1.00;;;;;;5076805;28;20549;-71
2021/06/29 10:43:18;;;;;;;8.33;7.57;;;33.40;1.00;;;;;;5077140;28;20473;-72
2021/06/29 10:45:47;;;;;;;8.57;7.77;;;33.50;1.00;;;;;;5076694;28;20458;-71
2021/06/29 10:48:19;;;;;;;8.13;7.50;;;33.50;1.00;;;;;;5076283;28;20565;-72
2021/06/29 10:50:47;;;;;;;8.30;7.57;;;33.50;1.00;;;;;;5076726;28;20489;-71
2021/06/29 10:53:37;;;;;;;7.60;7.00;;;33.40;1.00;;;;;;5076350;28;20919;-71
2021/06/29 10:56:05;;;;;;;9.83;8.87;;;33.30;1.00;;;;;;5076542;28;20442;-72
2021/06/29 10:58:41;;;;;;;9.30;8.47;;;33.20;1.00;;;;;;5076108;28;20450;-72
2021/06/29 11:01:25;;;;;;;8.20;7.40;;;33.00;1.00;;;;;;5076559;28;20438;-72
2021/06/29 11:03:54;;;;;;;8.63;7.93;;;32.60;1.00;;;;;;5076245;28;20439;-71
2021/06/29 11:06:44;;;;;;;9.03;8.33;;;32.30;1.00;;;;;;5076412;28;20558;-72
2021/06/29 11:09:14;;;;;;;9.40;8.50;;;32.10;1.00;;;;;;5075938;28;20434;-72
2021/06/29 11:11:42;;;;;;;8.70;8.10;;;31.90;1.00;;;;;;5076199;28;20449;-72
2021/06/29 11:14:27;;;;;;;10.07;9.17;;;31.70;1.00;;;;;;5076487;28;20458;-71
2021/06/29 11:16:55;;;;;;;11.43;8.90;;;31.40;1.00;;;;;;5075326;28;20469;-72
2021/06/29 11:19:43;;;;;;;12.90;10.77;;;31.10;1.00;;;;;;5076207;28;20450;-72
2021/06/29 11:22:43;;;;;;;20.17;13.10;;;30.70;1.00;;;;;;5076629;28;20830;-71
2021/06/29 11:25:11;;;;;;;16.03;12.43;;;29.60;1.00;;;;;;5076050;28;20458;-72
2021/06/29 11:28:03;;;;;;;10.70;8.43;;;28.50;1.00;;;;;;5076013;28;20472;-72
2021/06/29 11:31:10;;;;;;;11.10;8.70;;;27.60;1.00;;;;;;5076060;28;20466;-72
2021/06/29 11:33:46;;;;;;;11.63;7.60;;;26.80;91.80;;;;;;5014435;28;20456;-73
2021/06/29 11:36:52;;;;;;;10.10;7.73;;;26.30;99.90;;;;;;5014023;28;20532;-72
2021/06/29 11:39:35;;;;;;;7.63;6.83;;;25.90;99.90;;;;;;5064526;28;20461;-72
2021/06/29 11:42:12;;;;;;;6.90;5.67;;;25.50;99.90;;;;;;5075701;28;20434;-72
2021/06/29 11:44:48;;;;;;;7.40;6.33;;;25.30;99.90;;;;;;5075360;28;20442;-72
2021/06/29 11:47:18;;;;;;;7.20;5.70;;;25.20;99.90;;;;;;5075615;28;20478;-72
2021/06/29 11:49:51;;;;;;;6.17;5.67;;;25.30;1.00;;;;;;5075863;28;20493;-72
2021/06/29 11:52:27;;;;;;;6.20;5.70;;;25.40;99.90;;;;;;5075928;28;20450;-72
2021/06/29 11:54:56;;;;;;;7.57;6.97;;;25.70;1.00;;;;;;5075590;28;20449;-72
2021/06/29 11:57:27;;;;;;;6.70;6.10;;;26.00;1.00;;;;;;5075867;28;20454;-72
2021/06/29 11:59:58;;;;;;;6.20;5.70;;;26.50;1.00;;;;;;5075699;28;20457;-74
2021/06/29 12:02:26;;;;;;;5.93;5.53;;;27.20;1.00;;;;;;5076123;28;20796;-71
2021/06/29 12:05:01;;;;;;;5.93;5.50;;;28.00;99.90;;;;;;5075525;28;20807;-72
2021/06/29 12:07:37;;;;;;;5.97;5.47;;;28.70;1.00;;;;;;5076044;28;20438;-72
2021/06/29 12:10:08;;;;;;;8.00;6.00;;;29.30;1.00;;;;;;5075663;28;20470;-72
2021/06/29 12:12:37;;;;;;;6.10;5.70;;;29.80;99.90;;;;;;5075423;28;20859;-72
2021/06/29 12:15:07;;;;;;;4.83;4.53;;;30.10;99.90;;;;;;5075212;28;20837;-71
2021/06/29 12:17:35;;;;;;;6.17;5.77;;;30.40;99.90;;;;;;5075616;28;20458;-71
2021/06/29 12:20:08;;;;;;;5.87;5.30;;;30.70;1.00;;;;;;5075056;28;20458;-71
2021/06/29 12:22:36;;;;;;;6.17;5.60;;;30.90;1.00;;;;;;5075165;28;20443;-71
2021/06/29 12:25:05;;;;;;;6.33;5.87;;;31.00;1.00;;;;;;5075488;28;20454;-71
2021/06/29 12:27:32;;;;;;;6.00;5.50;;;31.00;1.00;;;;;;5075152;28;20786;-72
2021/06/29 12:30:19;;;;;;;5.87;5.43;;;31.10;1.00;;;;;;5075060;28;20489;-71
2021/06/29 12:32:46;;;;;;;6.77;6.07;;;31.10;1.00;;;;;;5075543;28;20450;-71
2021/06/29 12:35:13;;;;;;;6.80;6.30;;;31.00;1.00;;;;;;5074775;28;20454;-71
2021/06/29 12:37:59;;;;;;;6.73;6.23;;;31.00;1.00;;;;;;5074952;28;20454;-71
2021/06/29 12:40:29;;;;;;;7.00;6.30;;;31.00;1.00;;;;;;5075107;28;20435;-71
2021/06/29 12:43:00;;;;;;;7.87;7.13;;;30.90;1.00;;;;;;5075050;28;20465;-71
2021/06/29 12:45:30;;;;;;;7.70;7.07;;;30.80;1.00;;;;;;5075809;28;20458;-72
2021/06/29 12:48:06;;;;;;;7.83;7.03;;;30.80;1.00;;;;;;5072606;28;20482;-71
2021/06/29 12:50:33;;;;;;;7.87;7.27;;;30.70;1.00;;;;;;5074758;28;20473;-72
2021/06/29 12:53:00;;;;;;;7.97;7.30;;;30.60;1.00;;;;;;5074977;28;20765;-72
2021/06/29 12:55:30;;;;;;;8.90;8.10;;;30.50;1.00;;;;;;5074299;28;20926;-72
2021/06/29 12:58:05;;;;;;;7.97;7.17;;;30.50;1.00;;;;;;5075274;28;20462;-72
2021/06/29 13:00:37;;;;;;;7.33;6.83;;;30.40;1.00;;;;;;5075458;28;20454;-72
2021/06/29 13:03:04;;;;;;;7.90;7.30;;;30.30;1.00;;;;;;5076319;28;20435;-72